Latest Weather Observations for Port Kembla Harbour

IDN60801

Issued at 4:32 am EST Tuesday 26 September 2017 (issued every 30 minutes, with the page automatically refreshed every 10 minutes)

About weather observations | Map of weather stations | Latest weather observations for NSW | Other Formats
Station Details ID: 068253 Name: PORT KEMBLA NTC AWS Lat: -34.47 Lon: 150.91 Height: 0.0 m
Data from the previous 72 hours. | See also: Recent months for locations in New South Wales
Date/Time
EST
Temp
°C
App
Temp
°C
Dew
Point
°C
Rel
Hum
%
Delta-T
°C
Wind Press
QNH
hPa
Press
MSL
hPa
Rain since
9am
mm
Dir  Spd
km/h
Gust
km/h
Spd
kts
Gust
kts
26/04:30am 14.5 - - - - WSW 9 15 5 8 1013.2 1013.2 -
26/04:00am 13.5 - - - - SW 7 11 4 6 1012.8 1012.8 -
26/03:30am 13.4 - - - - SW 11 15 6 8 1012.7 1012.7 -
26/03:00am 13.2 - - - - SSW 7 13 4 7 1012.6 1012.6 -
26/02:30am 14.5 - - - - WSW 9 13 5 7 1012.3 1012.3 -
26/02:00am 14.6 - - - - W 11 13 6 7 1012.4 1012.4 -
26/01:30am 14.1 - - - - WSW 7 11 4 6 1012.4 1012.4 -
26/01:00am 13.9 - - - - WSW 4 9 2 5 1012.5 1012.5 -
26/12:30am 14.4 - - - - WSW 4 6 2 3 1012.4 1012.4 -
26/12:00am 14.5 - - - - WSW 4 7 2 4 1012.6 1012.6 -
 
Date/Time
EST
Temp
°C
App
Temp
°C
Dew
Point
°C
Rel
Hum
%
Delta-T
°C
Wind Press
QNH
hPa
Press
MSL
hPa
Rain since
9am
mm
Dir  Spd
km/h
Gust
km/h
Spd
kts
Gust
kts
25/11:30pm 14.6 - - - - WSW 6 6 3 3 1012.6 1012.6 -
25/11:00pm 15.5 - - - - SW 6 9 3 5 1012.5 1012.5 -
25/10:30pm 15.8 - - - - SSW 6 11 3 6 1012.5 1012.5 -
25/10:00pm 16.0 - - - - SSW 7 13 4 7 1012.4 1012.4 -
25/09:30pm 16.4 - - - - SSW 6 9 3 5 1012.1 1012.1 -
25/09:00pm 16.6 - - - - SSW 9 17 5 9 1011.8 1011.8 -
25/08:30pm 17.0 - - - - SW 11 22 6 12 1011.5 1011.5 -
25/08:00pm 19.1 - - - - WSW 13 19 7 10 1010.9 1010.9 -
25/07:30pm 19.4 - - - - W 22 30 12 16 1010.2 1010.2 -
25/07:00pm 19.9 - - - - W 22 33 12 18 1009.7 1009.7 -
25/06:30pm 20.1 - - - - W 28 43 15 23 1009.0 1009.0 -
25/06:00pm 20.5 - - - - W 37 48 20 26 1008.0 1008.0 -
25/05:31pm 20.9 - - - - W 41 59 22 32 1007.5 1007.5 -
25/05:30pm 20.9 - - - - W 41 57 22 31 1007.4 1007.4 -
25/05:00pm 21.2 - - - - W 41 61 22 33 1007.3 1007.3 -
25/04:30pm 21.4 - - - - WSW 43 65 23 35 1007.0 1007.0 -
25/04:00pm 21.8 - - - - W 41 61 22 33 1006.6 1006.6 -
25/03:30pm 22.1 - - - - W 39 59 21 32 1006.0 1006.0 -
25/03:00pm 22.1 - - - - W 44 63 24 34 1005.5 1005.5 -
25/02:33pm 22.2 - - - - W 46 67 25 36 1005.2 1005.2 -
25/02:30pm 22.3 - - - - W 46 67 25 36 1005.1 1005.1 -
25/02:00pm 22.7 - - - - W 50 69 27 37 1004.7 1004.7 -
25/01:40pm 23.0 - - - - W 41 63 22 34 1004.7 1004.7 -
25/01:30pm 23.0 - - - - W 41 57 22 31 1004.6 1004.6 -
25/01:00pm 23.0 - - - - W 41 61 22 33 1004.5 1004.5 -
25/12:40pm 22.9 - - - - W 44 67 24 36 1004.7 1004.7 -
25/12:30pm 22.5 - - - - WNW 43 59 23 32 1004.6 1004.6 -
25/12:00pm 22.8 - - - - W 44 65 24 35 1004.9 1004.9 -
25/11:30am 22.7 - - - - W 39 61 21 33 1005.3 1005.3 -
25/11:00am 22.1 - - - - W 43 65 23 35 1005.7 1005.7 -
25/10:30am 21.6 - - - - W 43 69 23 37 1005.9 1005.9 -
25/10:00am 21.4 - - - - W 44 65 24 35 1006.4 1006.4 -
25/09:32am 21.1 - - - - W 44 72 24 39 1006.9 1006.9 -
25/09:30am 21.0 - - - - W 44 59 24 32 1006.9 1006.9 -
25/09:00am 20.5 - - - - W 32 56 17 30 1007.0 1007.0 -
25/08:58am 20.5 - - - - W 32 52 17 28 1007.1 1007.1 -
25/08:30am 19.9 - - - - W 20 35 11 19 1006.6 1006.6 -
25/08:00am 19.1 - - - - W 17 28 9 15 1006.4 1006.4 -
25/07:30am 18.4 - - - - WNW 17 22 9 12 1006.1 1006.1 -
25/07:00am 18.3 - - - - WNW 15 20 8 11 1006.1 1006.1 -
25/06:30am 18.1 - - - - WNW 15 20 8 11 1006.0 1006.0 -
25/06:00am 18.1 - - - - WNW 17 22 9 12 1005.7 1005.7 -
25/05:30am 18.2 - - - - WNW 20 26 11 14 1005.4 1005.4 -
25/05:00am 18.7 - - - - W 15 24 8 13 1005.0 1005.0 -
25/04:30am 18.6 - - - - W 6 7 3 4 1004.8 1004.8 -
25/04:00am 19.0 - - - - W 6 9 3 5 1004.6 1004.6 -
25/03:30am 19.5 - - - - WSW 9 15 5 8 1004.1 1004.1 -
25/03:00am 20.2 - - - - WSW 11 22 6 12 1003.7 1003.7 -
25/02:30am 20.9 - - - - WSW 17 26 9 14 1003.4 1003.4 -
25/02:00am 21.3 - - - - WSW 13 22 7 12 1003.2 1003.2 -
25/01:30am 22.0 - - - - WSW 17 22 9 12 1003.1 1003.1 -
25/01:00am 22.5 - - - - W 19 28 10 15 1002.9 1002.9 -
25/12:30am 22.8 - - - - W 20 30 11 16 1002.7 1002.7 -
25/12:00am 22.8 - - - - W 20 30 11 16 1002.8 1002.8 -
 
Date/Time
EST
Temp
°C
App
Temp
°C
Dew
Point
°C
Rel
Hum
%
Delta-T
°C
Wind Press
QNH
hPa
Press
MSL
hPa
Rain since
9am
mm
Dir  Spd
km/h
Gust
km/h
Spd
kts
Gust
kts
24/11:30pm 23.2 - - - - W 24 39 13 21 1002.8 1002.8 -
24/11:00pm 23.9 - - - - W 35 56 19 30 1002.5 1002.5 -
24/10:57pm 23.8 - - - - W 33 56 18 30 1002.5 1002.5 -
24/10:30pm 23.5 - - - - W 32 44 17 24 1002.4 1002.4 -
24/10:00pm 23.8 - - - - W 28 48 15 26 1002.5 1002.5 -
24/09:33pm 23.7 - - - - WNW 32 54 17 29 1002.6 1002.6 -
24/09:30pm 23.7 - - - - WNW 28 44 15 24 1002.7 1002.7 -
24/09:00pm 23.7 - - - - WNW 32 59 17 32 1002.8 1002.8 -
24/08:33pm 23.7 - - - - WNW 35 56 19 30 1002.9 1002.9 -
24/08:30pm 23.9 - - - - WNW 37 56 20 30 1002.8 1002.8 -
24/08:00pm 23.9 - - - - WNW 30 50 16 27 1002.8 1002.8 -
24/07:30pm 23.8 - - - - WNW 28 50 15 27 1002.8 1002.8 -
24/07:02pm 23.7 - - - - WNW 28 54 15 29 1002.6 1002.6 -
24/07:00pm 23.9 - - - - WNW 26 54 14 29 1002.6 1002.6 -
24/06:30pm 23.8 - - - - WNW 22 33 12 18 1002.1 1002.1 -
24/06:00pm 24.2 - - - - WNW 26 43 14 23 1001.7 1001.7 -
24/05:41pm 24.7 - - - - WNW 33 56 18 30 1001.6 1001.6 -
24/05:30pm 24.8 - - - - WNW 33 50 18 27 1001.5 1001.5 -
24/05:08pm 25.0 - - - - WNW 35 56 19 30 1001.1 1001.1 -
24/05:00pm 25.2 - - - - WNW 39 56 21 30 1001.0 1001.0 -
24/04:30pm 25.4 - - - - WNW 39 57 21 31 1000.8 1000.8 -
24/04:01pm 25.5 - - - - WNW 37 63 20 34 1000.7 1000.7 -
24/04:00pm 25.6 - - - - WNW 37 56 20 30 1000.6 1000.6 -
24/03:30pm 26.0 - - - - WNW 39 59 21 32 1000.6 1000.6 -
24/03:03pm 26.4 - - - - WNW 33 69 18 37 1000.7 1000.7 -
24/03:00pm 26.3 - - - - WNW 33 50 18 27 1000.6 1000.6 -
24/02:30pm 26.5 - - - - WNW 46 69 25 37 1000.4 1000.4 -
24/02:14pm 26.3 - - - - WNW 48 74 26 40 1000.6 1000.6 -
24/02:13pm 26.4 - - - - WNW 48 74 26 40 1000.8 1000.8 -
24/02:00pm 26.2 - - - - WNW 35 61 19 33 1000.6 1000.6 -
24/01:30pm 26.5 - - - - WNW 39 57 21 31 1000.9 1000.9 -
24/01:00pm 26.6 - - - - WNW 41 59 22 32 1001.1 1001.1 -
24/12:33pm 26.7 - - - - WNW 35 54 19 29 1001.4 1001.4 -
24/12:30pm 26.6 - - - - WNW 37 54 20 29 1001.3 1001.3 -
24/12:00pm 26.0 - - - - WNW 41 69 22 37 1001.8 1001.8 -
24/11:30am 26.0 - - - - WNW 39 57 21 31 1001.9 1001.9 -
24/11:06am 25.8 - - - - WNW 28 50 15 27 1002.3 1002.3 -
24/11:00am 26.3 - - - - WNW 26 43 14 23 1002.1 1002.1 -
24/10:30am 25.5 - - - - NW 32 52 17 28 1002.0 1002.0 -
24/10:27am 25.4 - - - - NW 30 54 16 29 1002.1 1002.1 -
24/10:01am 25.1 - - - - WNW 37 57 20 31 1002.0 1002.0 -
24/10:00am 25.1 - - - - WNW 37 56 20 30 1002.0 1002.0 -
24/09:47am 24.7 - - - - W 43 61 23 33 1002.2 1002.2 -
24/09:30am 24.6 - - - - W 35 54 19 29 1002.9 1002.9 -
24/09:00am 24.7 - - - - W 35 57 19 31 1002.5 1002.5 -
24/08:45am 24.4 - - - - SW 19 54 10 29 1002.5 1002.5 -
24/08:42am 24.3 - - - - SSW 11 43 6 23 1002.5 1002.5 -
24/08:30am 19.2 - - - - SSE 9 17 5 9 1002.2 1002.2 -
24/08:00am 22.7 - - - - S 6 11 3 6 1001.8 1001.8 -
24/07:30am 22.0 - - - - SSW 7 13 4 7 1001.7 1001.7 -
24/07:00am 21.0 - - - - SSW 11 22 6 12 1001.5 1001.5 -
24/06:30am 23.5 - - - - SW 13 22 7 12 1001.2 1001.2 -
24/06:00am 25.5 - - - - WSW 17 28 9 15 1001.1 1001.1 -
24/05:30am 26.2 - - - - WSW 28 43 15 23 999.3 999.3 -
24/05:00am 29.3 - - - - SSW 11 30 6 16 998.0 998.0 -
24/04:30am 24.0 - - - - NE 11 19 6 10 996.7 996.7 -
24/04:00am 24.8 - - - - NE 19 32 10 17 995.8 995.8 -
24/03:55am 24.4 - - - - NE 22 32 12 17 995.5 995.5 -
24/03:30am 29.6 - - - - NNW 20 33 11 18 995.9 995.9 -
24/03:00am 29.0 - - - - NNE 6 24 3 13 996.4 996.4 -
24/02:57am 29.7 - - - - NE 6 24 3 13 996.1 996.1 -
24/02:30am 24.3 - - - - NE 19 26 10 14 996.2 996.2 -
24/02:09am 23.9 - - - - NE 13 22 7 12 995.9 995.9 -
24/02:00am 29.1 - - - - NNW 11 20 6 11 996.7 996.7 -
24/01:30am 29.8 - - - - NW 22 43 12 23 996.2 996.2 -
24/01:23am 31.7 - - - - NW 20 43 11 23 995.8 995.8 -
24/01:00am 26.6 - - - - NE 17 33 9 18 995.8 995.8 -
24/12:30am 23.1 - - - - NE 32 46 17 25 996.4 996.4 -
24/12:00am 23.8 - - - - NE 26 35 14 19 996.9 996.9 -
 
Date/Time
EST
Temp
°C
App
Temp
°C
Dew
Point
°C
Rel
Hum
%
Delta-T
°C
Wind Press
QNH
hPa
Press
MSL
hPa
Rain since
9am
mm
Dir  Spd
km/h
Gust
km/h
Spd
kts
Gust
kts
23/11:30pm 23.5 - - - - NE 22 33 12 18 996.9 996.9 -
23/11:00pm 22.5 - - - - NE 22 35 12 19 998.4 998.4 -
23/10:30pm 23.0 - - - - NE 22 32 12 17 998.7 998.7 -
23/10:00pm 23.0 - - - - NE 20 32 11 17 999.2 999.2 -
23/09:30pm 21.4 - - - - NE 17 24 9 13 999.2 999.2 -
23/09:00pm 22.1 - - - - NE 22 28 12 15 999.1 999.1 -
23/08:30pm 21.8 - - - - NE 22 28 12 15 998.9 998.9 -
23/08:00pm 21.9 - - - - NE 20 28 11 15 999.1 999.1 -
23/07:30pm 21.3 - - - - NE 19 26 10 14 999.3 999.3 -
23/07:00pm 20.9 - - - - NNE 15 20 8 11 999.4 999.4 -
23/06:30pm 20.6 - - - - NNE 15 26 8 14 998.9 998.9 -
23/06:00pm 20.8 - - - - N 19 26 10 14 999.1 999.1 -
23/05:30pm 21.8 - - - - NNE 20 32 11 17 999.0 999.0 -
23/05:00pm 21.0 - - - - NNE 17 28 9 15 999.1 999.1 -
23/04:30pm 21.9 - - - - NNE 22 32 12 17 999.0 999.0 -
23/04:00pm 22.1 - - - - NNE 28 43 15 23 999.1 999.1 -
23/03:54pm 23.1 - - - - NNE 20 43 11 23 998.9 998.9 -
23/03:30pm 20.6 - - - - N 13 22 7 12 999.4 999.4 -
23/03:00pm 21.4 - - - - N 17 24 9 13 999.6 999.6 -

Other Formats:

Comma delimited format used in spreadsheet applications
http://www.bom.gov.au/fwo/IDN60801/IDN60801.95745.axf

JavaScript Object Notation format (JSON) in row-major order
http://www.bom.gov.au/fwo/IDN60801/IDN60801.95745.json